Pagina principale
METAR-TAF:

METAR-TAF

Aeroporti :

Aeroporto di Tolone-Hyères

Tolone, Francia

latitudine: 43-06N, longitudine: 006-09E, altezza: 3 m

Osservazione

Il bollettino è stato emesso 25 minuti fa, alle 20:30 UTC
Vento 4 kt da sud/sud-est
Temperature 24°C
Umidità 83%
Pressione 1013 hPa
Visibilità 10 km o più
nessuna nube inferiore a 1500 m e nessun cumulonembo

METAR: LFTH 222030Z AUTO 15004KT CAVOK 24/21 Q1013 NOSIG

Ora: 22:55 (20:55 UTC)

Previsione

Il bollettino è stato emesso 55 minuti fa, alle 20:00 UTC
Previsione valida dal 22 alle 21 UTC al 23 alle 21 UTC
Vento 3 kt da direzioni variabili
Visibilità 10 km o più
nessuna nube inferiore a 1500 m e nessun cumulonembo
Evoluzione graduale
dal 23 alle 01 UTC al 23 alle 04 UTC
Vento 12 kt da est/sud-est
Evoluzione graduale
dal 23 alle 14 UTC al 23 alle 17 UTC
Vento 6 kt da ovest/sud-ovest

TAF: LFTH 222000Z 2221/2321 VRB03KT CAVOK BECMG 2301/2304 12012KT BECMG 2314/2317 24006KT

Osservazioni e previsioni meteorologiche di più di 4000 aeroporti (messaggi METAR e TAF).

Le stazioni disponibili sono rappresentate dai dischi gialli e rossi sulla carta.

Puntare il mouse per vedere il nome della stazione.

Clicca sopra per visualizzare le osservazioni e previsioni meteorologiche.

Per cambiare la mappa : fare clic sui pulsanti verdi con una croce nera per ingrandire, il pulsante verde con un trattino per diminuire, o sulla freccia verde per le mappe adiacenti.


METAR-TAF: